Flugplatz Celle Airport

Bericht für ETHC

vom 23.02. um 23:20 UTC

Wind 10 kt aus 260°

Sichtweite 10 km oder mehr

gering bewölkt in 2300 ft

Temperatur 4.0°C

Taupunkt 1.0°C

Luftfeuchtigkeit 81%

Luftdruck 1017 hPa

ETHC 232320Z 26010KT 9999 FEW023 04/01 Q1017 BLU+
Keine Prognose (TAF) verfügbar.
Impressum